Time;durP1;ratioP1;P1;durP2;ratioP2;P2;SDS_P1;SDS_P2;PMS_P1;PMS_P2;Temp;Humidity;BMP_temperature;BMP_pressure;BME280_temperature;BME280_humidity;BME280_pressure;Samples;Min_cycle;Max_cycle;Signal;HPM_P1;HPM_P2
2022/03/15 00:00:36;;;;;;;14.57;11.27;;;;;;;;;;5073161;28;20219;-48
2022/03/15 00:03:03;;;;;;;14.63;12.20;;;;;;;;;;5073362;28;20608;-49
2022/03/15 00:05:29;;;;;;;13.93;11.40;;;;;;;;;;5073295;28;20488;-49
2022/03/15 00:07:56;;;;;;;12.80;10.07;;;;;;;;;;5073028;28;20509;-49
2022/03/15 00:10:22;;;;;;;13.00;10.50;;;;;;;;;;5073210;28;20458;-48
2022/03/15 00:12:48;;;;;;;11.87;10.67;;;;;;;;;;5072844;28;20450;-49
2022/03/15 00:15:14;;;;;;;11.77;9.80;;;;;;;;;;5073125;28;20480;-48
2022/03/15 00:17:41;;;;;;;11.43;9.77;;;;;;;;;;5072756;28;20893;-49
2022/03/15 00:20:11;;;;;;;10.20;9.13;;;;;;;;;;5072969;28;20955;-49
2022/03/15 00:22:37;;;;;;;10.27;8.70;;;;;;;;;;5072675;28;20815;-48
2022/03/15 00:25:04;;;;;;;10.60;9.00;;;;;;;;;;5072351;28;20818;-48
2022/03/15 00:27:30;;;;;;;10.63;9.00;;;;;;;;;;5072644;28;20430;-48
2022/03/15 00:29:56;;;;;;;11.00;9.07;;;;;;;;;;5072842;28;20521;-48
2022/03/15 00:32:23;;;;;;;10.50;9.50;;;;;;;;;;5072549;28;20497;-48
2022/03/15 00:34:49;;;;;;;10.63;9.53;;;;;;;;;;5072481;28;20995;-48
2022/03/15 00:37:17;;;;;;;10.70;9.50;;;;;;;;;;5072564;28;20580;-48
2022/03/15 00:39:43;;;;;;;12.90;10.77;;;;;;;;;;5071813;28;20430;-48
2022/03/15 00:42:09;;;;;;;11.30;10.10;;;;;;;;;;5072550;28;20462;-48
2022/03/15 00:44:35;;;;;;;11.47;10.27;;;;;;;;;;5072496;28;20499;-48
2022/03/15 00:47:02;;;;;;;11.23;9.80;;;;;;;;;;5072484;28;20928;-48
2022/03/15 00:49:28;;;;;;;10.60;9.50;;;;;;;;;;5072335;28;20658;-48
2022/03/15 00:51:54;;;;;;;11.27;9.03;;;;;;;;;;5072536;28;20529;-48
2022/03/15 00:54:22;;;;;;;10.70;9.40;;;;;;;;;;5072454;28;20434;-48
2022/03/15 00:56:48;;;;;;;10.23;9.17;;;;;;;;;;5071652;28;20548;-47
2022/03/15 00:59:15;;;;;;;11.07;9.80;;;;;;;;;;5072242;28;20513;-47
2022/03/15 01:01:41;;;;;;;11.97;10.67;;;;;;;;;;5072090;28;20521;-47
2022/03/15 01:04:07;;;;;;;12.93;11.43;;;;;;;;;;5072237;28;20484;-49
2022/03/15 01:06:34;;;;;;;13.10;10.33;;;;;;;;;;5071922;28;20438;-48
2022/03/15 01:09:00;;;;;;;10.33;9.23;;;;;;;;;;5071717;28;20207;-49
2022/03/15 01:11:28;;;;;;;11.07;9.90;;;;;;;;;;5070118;28;20442;-49
2022/03/15 01:13:54;;;;;;;12.63;10.67;;;;;;;;;;5071719;28;20457;-49
2022/03/15 01:16:20;;;;;;;18.67;14.27;;;;;;;;;;5071990;28;20481;-49
2022/03/15 01:18:46;;;;;;;18.03;13.33;;;;;;;;;;5072123;28;20200;-49
2022/03/15 01:21:13;;;;;;;19.23;13.77;;;;;;;;;;5072092;28;20485;-49
2022/03/15 01:23:39;;;;;;;14.20;12.73;;;;;;;;;;5071505;28;20473;-49
2022/03/15 01:26:05;;;;;;;14.40;12.13;;;;;;;;;;5071704;28;20464;-50
2022/03/15 01:28:33;;;;;;;16.00;12.60;;;;;;;;;;5071928;28;20486;-49
2022/03/15 01:30:59;;;;;;;15.10;12.57;;;;;;;;;;5071984;28;20200;-49
2022/03/15 01:33:25;;;;;;;16.97;13.30;;;;;;;;;;5070394;28;20503;-49
2022/03/15 01:35:51;;;;;;;15.57;12.80;;;;;;;;;;5071913;28;20492;-50
2022/03/15 01:38:17;;;;;;;15.97;12.73;;;;;;;;;;5071909;28;20962;-50
2022/03/15 01:40:43;;;;;;;15.93;12.13;;;;;;;;;;5071789;28;20440;-50
2022/03/15 01:43:10;;;;;;;17.77;13.30;;;;;;;;;;5071936;28;20500;-50
2022/03/15 01:45:40;;;;;;;16.17;13.30;;;;;;;;;;5072059;28;20199;-48
2022/03/15 01:48:07;;;;;;;16.10;12.53;;;;;;;;;;5072036;28;20445;-49
2022/03/15 01:50:33;;;;;;;13.73;12.13;;;;;;;;;;5071562;28;20952;-49
2022/03/15 01:53:00;;;;;;;15.10;11.47;;;;;;;;;;5075756;28;20436;-49
2022/03/15 01:55:26;;;;;;;12.43;11.13;;;;;;;;;;5075896;28;20782;-49
2022/03/15 01:57:54;;;;;;;12.33;10.77;;;;;;;;;;5075541;28;20952;-49
2022/03/15 02:00:20;;;;;;;15.13;11.27;;;;;;;;;;5075805;28;20481;-48
2022/03/15 02:02:48;;;;;;;12.93;11.17;;;;;;;;;;5075682;28;20425;-49
2022/03/15 02:05:14;;;;;;;14.63;11.53;;;;;;;;;;5075740;28;20445;-49
2022/03/15 02:07:40;;;;;;;15.57;11.43;;;;;;;;;;5075501;28;20438;-49
2022/03/15 02:10:06;;;;;;;13.13;11.33;;;;;;;;;;5075558;28;20445;-49
2022/03/15 02:12:34;;;;;;;12.60;10.13;;;;;;;;;;5075417;28;20196;-49
2022/03/15 02:15:03;;;;;;;13.03;10.47;;;;;;;;;;5075321;28;20487;-49
2022/03/15 02:17:29;;;;;;;14.53;11.30;;;;;;;;;;5075334;28;20473;-49
2022/03/15 02:19:56;;;;;;;12.70;10.77;;;;;;;;;;5075197;28;20440;-48
2022/03/15 02:22:25;;;;;;;13.77;11.07;;;;;;;;;;5075308;28;20476;-49
2022/03/15 02:24:51;;;;;;;11.80;10.60;;;;;;;;;;5074849;28;20482;-49
2022/03/15 02:27:19;;;;;;;13.00;10.57;;;;;;;;;;5075235;28;20528;-50
2022/03/15 02:29:48;;;;;;;11.27;9.87;;;;;;;;;;5075055;28;20430;-48
2022/03/15 02:32:14;;;;;;;11.97;10.07;;;;;;;;;;5075202;28;20512;-48
2022/03/15 02:34:40;;;;;;;12.17;9.87;;;;;;;;;;5074951;28;20962;-48
2022/03/15 02:37:06;;;;;;;13.30;10.60;;;;;;;;;;5075077;28;20485;-48
2022/03/15 02:39:34;;;;;;;11.83;10.30;;;;;;;;;;5075013;28;20200;-51
2022/03/15 02:42:00;;;;;;;15.67;10.27;;;;;;;;;;5074934;28;20449;-51
2022/03/15 02:44:26;;;;;;;13.27;10.03;;;;;;;;;;5075070;28;20521;-49
2022/03/15 02:46:52;;;;;;;11.27;10.03;;;;;;;;;;5074795;28;20767;-49
2022/03/15 02:49:18;;;;;;;14.10;10.40;;;;;;;;;;5074973;28;20441;-49
2022/03/15 02:51:44;;;;;;;10.17;8.93;;;;;;;;;;5074719;28;20434;-49
2022/03/15 02:54:11;;;;;;;11.97;9.73;;;;;;;;;;5074810;28;20437;-49
2022/03/15 02:56:42;;;;;;;11.83;9.87;;;;;;;;;;5074525;28;20473;-49
2022/03/15 02:59:08;;;;;;;14.17;10.80;;;;;;;;;;5074566;28;20472;-49
2022/03/15 03:01:34;;;;;;;12.20;10.53;;;;;;;;;;5074315;28;20441;-49
2022/03/15 03:04:01;;;;;;;13.20;10.33;;;;;;;;;;5073807;28;20207;-49
2022/03/15 03:06:27;;;;;;;11.27;9.33;;;;;;;;;;5074395;28;20445;-49
2022/03/15 03:08:53;;;;;;;14.10;10.60;;;;;;;;;;5074351;28;20806;-49
2022/03/15 03:11:19;;;;;;;13.33;10.23;;;;;;;;;;5074438;28;20257;-49
2022/03/15 03:13:48;;;;;;;13.03;11.30;;;;;;;;;;5074322;28;20291;-49
2022/03/15 03:16:15;;;;;;;14.00;11.53;;;;;;;;;;5074443;28;20473;-49
2022/03/15 03:18:41;;;;;;;15.23;10.77;;;;;;;;;;5074100;28;20434;-49
2022/03/15 03:21:07;;;;;;;13.40;10.47;;;;;;;;;;5074149;28;21014;-49
2022/03/15 03:23:38;;;;;;;12.27;9.70;;;;;;;;;;5073772;28;20465;-50
2022/03/15 03:26:04;;;;;;;10.90;9.63;;;;;;;;;;5074049;28;20445;-49
2022/03/15 03:28:36;;;;;;;11.13;9.50;;;;;;;;;;5074091;28;20430;-49
2022/03/15 03:31:04;;;;;;;12.20;9.47;;;;;;;;;;5073980;28;20438;-49
2022/03/15 03:33:30;;;;;;;10.83;9.60;;;;;;;;;;5073905;28;20814;-49
2022/03/15 03:35:56;;;;;;;11.63;10.13;;;;;;;;;;5073944;28;20444;-50
2022/03/15 03:38:22;;;;;;;11.70;10.13;;;;;;;;;;5073859;28;20791;-49
2022/03/15 03:40:49;;;;;;;11.37;10.10;;;;;;;;;;5073809;28;20286;-49
2022/03/15 03:43:15;;;;;;;11.77;9.77;;;;;;;;;;5073724;28;20824;-49
2022/03/15 03:45:41;;;;;;;13.47;10.00;;;;;;;;;;5073703;28;20446;-49
2022/03/15 03:48:09;;;;;;;11.17;10.00;;;;;;;;;;5073883;28;20199;-49
2022/03/15 03:50:35;;;;;;;12.43;9.93;;;;;;;;;;5073472;28;20460;-50
2022/03/15 03:53:02;;;;;;;11.13;9.93;;;;;;;;;;5073578;28;20453;-49
2022/03/15 03:55:28;;;;;;;11.87;10.10;;;;;;;;;;5073613;28;20442;-49
2022/03/15 03:57:54;;;;;;;10.67;8.77;;;;;;;;;;5073285;28;20473;-50
2022/03/15 04:00:20;;;;;;;10.53;9.43;;;;;;;;;;5073458;28;20622;-50
2022/03/15 04:02:46;;;;;;;13.13;9.60;;;;;;;;;;5073420;28;20496;-49
2022/03/15 04:05:15;;;;;;;11.53;9.67;;;;;;;;;;5073346;28;20434;-49
2022/03/15 04:07:43;;;;;;;11.80;10.07;;;;;;;;;;5073201;28;20446;-49
2022/03/15 04:10:10;;;;;;;11.83;10.07;;;;;;;;;;5073342;28;20491;-50
2022/03/15 04:12:36;;;;;;;11.67;9.67;;;;;;;;;;5073112;28;20434;-49
2022/03/15 04:15:02;;;;;;;11.63;9.87;;;;;;;;;;5072221;28;20513;-49
2022/03/15 04:17:28;;;;;;;11.57;9.63;;;;;;;;;;5073201;28;20561;-49
2022/03/15 04:19:54;;;;;;;12.77;11.20;;;;;;;;;;5072983;28;20429;-49
2022/03/15 04:22:21;;;;;;;11.90;9.63;;;;;;;;;;5072946;28;20515;-49
2022/03/15 04:24:48;;;;;;;11.87;10.30;;;;;;;;;;5072633;28;20879;-49
2022/03/15 04:27:16;;;;;;;10.93;8.93;;;;;;;;;;5072853;28;20821;-50
2022/03/15 04:29:42;;;;;;;10.77;9.40;;;;;;;;;;5072839;28;20466;-49
2022/03/15 04:32:08;;;;;;;12.50;9.97;;;;;;;;;;5072924;28;20472;-50
2022/03/15 04:34:34;;;;;;;11.23;10.00;;;;;;;;;;5072749;28;20188;-50
2022/03/15 04:37:00;;;;;;;14.67;10.40;;;;;;;;;;5072904;28;20539;-48
2022/03/15 04:39:27;;;;;;;12.23;9.93;;;;;;;;;;5072582;28;20438;-49
2022/03/15 04:41:54;;;;;;;12.40;10.17;;;;;;;;;;5072638;28;20732;-49
2022/03/15 04:44:20;;;;;;;12.07;9.43;;;;;;;;;;5072801;28;20465;-50
2022/03/15 04:46:46;;;;;;;10.47;9.47;;;;;;;;;;5072585;28;20495;-49
2022/03/15 04:49:13;;;;;;;11.73;9.20;;;;;;;;;;5072716;28;20442;-49
2022/03/15 04:51:39;;;;;;;11.13;9.80;;;;;;;;;;5072582;28;20289;-48
2022/03/15 04:54:05;;;;;;;12.20;10.53;;;;;;;;;;5072386;28;20800;-48
2022/03/15 04:56:32;;;;;;;11.20;9.97;;;;;;;;;;5072327;28;21078;-48
2022/03/15 04:58:58;;;;;;;10.13;9.13;;;;;;;;;;5072553;28;20442;-48
2022/03/15 05:01:24;;;;;;;10.40;9.37;;;;;;;;;;5072421;28;20808;-49
2022/03/15 05:03:50;;;;;;;11.93;9.23;;;;;;;;;;5072358;28;20204;-49
2022/03/15 05:06:16;;;;;;;10.13;9.13;;;;;;;;;;5070840;28;20752;-49
2022/03/15 05:08:43;;;;;;;10.83;9.73;;;;;;;;;;5072279;28;20545;-49
2022/03/15 05:11:09;;;;;;;11.23;9.33;;;;;;;;;;5072396;28;20422;-49
2022/03/15 05:13:39;;;;;;;12.70;10.43;;;;;;;;;;5072171;28;20425;-49
2022/03/15 05:16:06;;;;;;;10.70;9.17;;;;;;;;;;5072271;28;20525;-49
2022/03/15 05:18:32;;;;;;;12.77;9.53;;;;;;;;;;5072227;28;20418;-50
2022/03/15 05:20:58;;;;;;;11.30;10.10;;;;;;;;;;5072338;28;20474;-49
2022/03/15 05:23:24;;;;;;;11.17;9.90;;;;;;;;;;5071933;28;20504;-49
2022/03/15 05:25:50;;;;;;;13.33;10.33;;;;;;;;;;5071729;28;20570;-49
2022/03/15 05:28:16;;;;;;;11.07;9.87;;;;;;;;;;5072497;28;20229;-49
2022/03/15 05:30:43;;;;;;;10.17;9.17;;;;;;;;;;5072031;28;20572;-49
2022/03/15 05:33:09;;;;;;;10.97;9.87;;;;;;;;;;5072035;28;20867;-49
2022/03/15 05:35:35;;;;;;;10.93;9.83;;;;;;;;;;5071944;28;20434;-49
2022/03/15 05:38:01;;;;;;;12.00;9.80;;;;;;;;;;5071984;28;20587;-51
2022/03/15 05:40:27;;;;;;;11.77;10.43;;;;;;;;;;5072072;28;20211;-49
2022/03/15 05:42:53;;;;;;;13.13;11.03;;;;;;;;;;5071886;28;20445;-49
2022/03/15 05:45:20;;;;;;;13.57;10.47;;;;;;;;;;5072069;28;20836;-49
2022/03/15 05:47:47;;;;;;;12.57;11.00;;;;;;;;;;5071895;28;20211;-50
2022/03/15 05:50:13;;;;;;;20.30;11.33;;;;;;;;;;5071954;28;20461;-49
2022/03/15 05:52:39;;;;;;;13.37;10.30;;;;;;;;;;5071779;28;20436;-49
2022/03/15 05:55:05;;;;;;;13.13;10.60;;;;;;;;;;5072062;28;20438;-50
2022/03/15 05:57:31;;;;;;;12.83;10.07;;;;;;;;;;5071804;28;20215;-50
2022/03/15 05:59:57;;;;;;;11.83;10.07;;;;;;;;;;5071764;28;20434;-49
2022/03/15 06:02:23;;;;;;;11.67;10.07;;;;;;;;;;5071854;28;20518;-49
2022/03/15 06:04:51;;;;;;;11.90;10.67;;;;;;;;;;5071565;28;20613;-49
2022/03/15 06:07:17;;;;;;;17.60;12.70;;;;;;;;;;5071779;28;20434;-49
2022/03/15 06:09:43;;;;;;;14.97;12.40;;;;;;;;;;5071652;28;20437;-50
2022/03/15 06:12:10;;;;;;;14.70;12.03;;;;;;;;;;5071426;28;20499;-49
2022/03/15 06:14:36;;;;;;;15.93;13.07;;;;;;;;;;5071133;28;20191;-49
2022/03/15 06:17:02;;;;;;;19.20;15.10;;;;;;;;;;5071673;28;20513;-49
2022/03/15 06:19:28;;;;;;;17.27;14.63;;;;;;;;;;5071359;28;20243;-49
2022/03/15 06:21:55;;;;;;;21.53;16.93;;;;;;;;;;5070907;28;20980;-49
2022/03/15 06:24:23;;;;;;;24.30;18.63;;;;;;;;;;5071256;28;20250;-49
2022/03/15 06:26:49;;;;;;;23.97;19.67;;;;;;;;;;5071249;28;20985;-49
2022/03/15 06:29:15;;;;;;;27.10;20.57;;;;;;;;;;5071532;28;20429;-49
2022/03/15 06:31:41;;;;;;;22.10;19.20;;;;;;;;;;5071265;28;20446;-50
2022/03/15 06:34:08;;;;;;;25.20;19.63;;;;;;;;;;5071397;28;20771;-50
2022/03/15 06:36:37;;;;;;;23.13;19.43;;;;;;;;;;5071243;28;20685;-50
2022/03/15 06:39:08;;;;;;;24.57;18.37;;;;;;;;;;5073258;28;20433;-50
2022/03/15 06:41:39;;;;;;;22.93;18.87;;;;;;;;;;5074925;28;20800;-49
2022/03/15 06:44:05;;;;;;;24.57;18.67;;;;;;;;;;5075081;28;20800;-50
2022/03/15 06:46:31;;;;;;;23.37;17.50;;;;;;;;;;5074898;28;20521;-50
2022/03/15 06:48:58;;;;;;;21.03;17.93;;;;;;;;;;5074891;28;20802;-50
2022/03/15 06:51:24;;;;;;;23.60;18.83;;;;;;;;;;5074657;28;20438;-50
2022/03/15 06:53:50;;;;;;;25.37;19.50;;;;;;;;;;5074544;28;20456;-49
2022/03/15 06:56:17;;;;;;;26.53;19.40;;;;;;;;;;5074414;28;20438;-50
2022/03/15 06:58:46;;;;;;;26.37;18.90;;;;;;;;;;5074691;28;20450;-48
2022/03/15 07:01:12;;;;;;;26.87;21.03;;;;;;;;;;5074934;28;20434;-49
2022/03/15 07:03:38;;;;;;;24.07;19.33;;;;;;;;;;5074387;28;20450;-50
2022/03/15 07:06:04;;;;;;;25.70;19.53;;;;;;;;;;5074505;28;20499;-49
2022/03/15 07:08:30;;;;;;;24.63;19.13;;;;;;;;;;5074707;28;20816;-49
2022/03/15 07:10:56;;;;;;;27.43;19.20;;;;;;;;;;5074306;28;20479;-49
2022/03/15 07:13:24;;;;;;;26.83;19.70;;;;;;;;;;5074446;28;20791;-49
2022/03/15 07:15:49;;;;;;;23.37;19.40;;;;;;;;;;5074111;28;20438;-49
2022/03/15 07:18:16;;;;;;;23.63;17.90;;;;;;;;;;5074307;28;20497;-49
2022/03/15 07:20:42;;;;;;;25.70;19.70;;;;;;;;;;5074331;28;20200;-49
2022/03/15 07:23:08;;;;;;;28.83;19.87;;;;;;;;;;5073818;28;20485;-48
2022/03/15 07:25:34;;;;;;;25.03;19.57;;;;;;;;;;5074023;28;20434;-49
2022/03/15 07:28:00;;;;;;;24.70;19.50;;;;;;;;;;5073959;28;20525;-48
2022/03/15 07:30:27;;;;;;;26.77;19.63;;;;;;;;;;5073839;28;20992;-50
2022/03/15 07:32:53;;;;;;;24.77;18.97;;;;;;;;;;5073828;28;20524;-48
2022/03/15 07:35:20;;;;;;;26.20;19.30;;;;;;;;;;5073863;28;20525;-47
2022/03/15 07:37:50;;;;;;;25.90;19.60;;;;;;;;;;5073797;28;20531;-48
2022/03/15 07:40:16;;;;;;;25.17;19.13;;;;;;;;;;5073872;28;20430;-48
2022/03/15 07:42:42;;;;;;;28.93;19.47;;;;;;;;;;5073617;28;20855;-48
2022/03/15 07:45:08;;;;;;;25.67;19.27;;;;;;;;;;5073898;28;20453;-49
2022/03/15 07:47:36;;;;;;;24.90;18.53;;;;;;;;;;5073830;28;20199;-48
2022/03/15 07:50:02;;;;;;;27.63;19.73;;;;;;;;;;5073406;28;20434;-48
2022/03/15 07:52:28;;;;;;;25.30;19.13;;;;;;;;;;5073723;28;20923;-48
2022/03/15 07:54:54;;;;;;;23.43;18.97;;;;;;;;;;5073038;28;20569;-48
2022/03/15 07:57:20;;;;;;;25.93;19.80;;;;;;;;;;5073317;28;20561;-48
2022/03/15 07:59:46;;;;;;;22.97;18.77;;;;;;;;;;5073513;28;20200;-49
2022/03/15 08:02:14;;;;;;;25.00;18.77;;;;;;;;;;5073540;28;20430;-48
2022/03/15 08:04:42;;;;;;;25.90;19.87;;;;;;;;;;5073347;28;20465;-48
2022/03/15 08:07:08;;;;;;;26.73;19.40;;;;;;;;;;5073201;28;20464;-48
2022/03/15 08:09:35;;;;;;;25.77;19.90;;;;;;;;;;5073330;28;20479;-48
2022/03/15 08:12:01;;;;;;;27.50;20.47;;;;;;;;;;5073112;28;20434;-49
2022/03/15 08:14:27;;;;;;;23.40;18.03;;;;;;;;;;5073318;28;20801;-49
2022/03/15 08:16:53;;;;;;;22.57;17.90;;;;;;;;;;5072800;28;20223;-48
2022/03/15 08:19:19;;;;;;;26.20;19.33;;;;;;;;;;5073212;28;20226;-48
2022/03/15 08:21:46;;;;;;;28.50;20.20;;;;;;;;;;5073038;28;20654;-49
2022/03/15 08:24:14;;;;;;;26.57;18.93;;;;;;;;;;5072813;28;20480;-49
2022/03/15 08:26:40;;;;;;;21.93;17.63;;;;;;;;;;5072796;28;20444;-49
2022/03/15 08:29:06;;;;;;;23.07;18.30;;;;;;;;;;5073042;28;20477;-49
2022/03/15 08:31:32;;;;;;;23.27;18.33;;;;;;;;;;5072723;28;20271;-49
2022/03/15 08:33:58;;;;;;;24.10;18.40;;;;;;;;;;5072805;28;20222;-49
2022/03/15 08:36:24;;;;;;;23.97;18.30;;;;;;;;;;5072653;28;20433;-49
2022/03/15 08:38:51;;;;;;;23.33;17.80;;;;;;;;;;5072607;28;20796;-49
2022/03/15 08:41:17;;;;;;;26.90;19.17;;;;;;;;;;5072725;28;20227;-48
2022/03/15 08:43:43;;;;;;;24.43;18.43;;;;;;;;;;5072711;28;20805;-51
2022/03/15 08:46:10;;;;;;;24.57;18.50;;;;;;;;;;5072660;28;20294;-49
2022/03/15 08:48:36;;;;;;;22.80;18.30;;;;;;;;;;5072626;28;20222;-51
2022/03/15 08:51:02;;;;;;;23.70;17.83;;;;;;;;;;5072515;28;20450;-50
2022/03/15 08:53:29;;;;;;;23.90;17.93;;;;;;;;;;5070755;28;21107;-50
2022/03/15 08:55:56;;;;;;;26.00;18.60;;;;;;;;;;5071967;28;20559;-49
2022/03/15 08:58:22;;;;;;;25.00;18.63;;;;;;;;;;5072317;28;20655;-49
2022/03/15 09:00:49;;;;;;;23.20;18.03;;;;;;;;;;5071719;28;20236;-49
2022/03/15 09:03:15;;;;;;;22.40;18.40;;;;;;;;;;5072496;28;20238;-49
2022/03/15 09:05:41;;;;;;;23.30;17.17;;;;;;;;;;5072328;28;20200;-49
2022/03/15 09:08:07;;;;;;;23.70;18.23;;;;;;;;;;5072337;28;20219;-49
2022/03/15 09:10:33;;;;;;;23.67;17.63;;;;;;;;;;5072283;28;20218;-49
2022/03/15 09:13:00;;;;;;;25.00;18.70;;;;;;;;;;5072254;28;20205;-50
2022/03/15 09:15:27;;;;;;;21.80;16.50;;;;;;;;;;5072039;28;20679;-49
2022/03/15 09:17:53;;;;;;;21.90;16.57;;;;;;;;;;5071911;28;20220;-49
2022/03/15 09:20:19;;;;;;;20.23;16.37;;;;;;;;;;5072197;28;20195;-50
2022/03/15 09:22:45;;;;;;;23.20;16.87;;;;;;;;;;5072109;28;20191;-50
2022/03/15 09:25:11;;;;;;;22.60;16.20;;;;;;;;;;5071750;28;20281;-49
2022/03/15 09:27:37;;;;;;;22.30;16.73;;;;;;;;;;5071773;28;20200;-51
2022/03/15 09:30:06;;;;;;;21.33;16.10;;;;;;;;;;5071805;28;20202;-49
2022/03/15 09:32:32;;;;;;;21.50;16.60;;;;;;;;;;5072115;28;20246;-49
2022/03/15 09:34:58;;;;;;;24.17;16.33;;;;;;;;;;5072083;28;20661;-49
2022/03/15 09:37:24;;;;;;;18.50;15.30;;;;;;;;;;5072173;28;20306;-50
2022/03/15 09:39:51;;;;;;;21.87;16.90;;;;;;;;;;5071810;28;20562;-50
2022/03/15 09:42:18;;;;;;;22.40;15.67;;;;;;;;;;5071952;28;20607;-52
2022/03/15 09:44:45;;;;;;;21.13;16.13;;;;;;;;;;5072077;28;20199;-51
2022/03/15 09:47:15;;;;;;;20.67;16.60;;;;;;;;;;5071852;28;20203;-50
2022/03/15 09:49:43;;;;;;;18.60;15.20;;;;;;;;;;5071825;28;20293;-52
2022/03/15 09:52:11;;;;;;;24.73;16.10;;;;;;;;;;5071897;28;20817;-52
2022/03/15 09:54:37;;;;;;;22.07;16.13;;;;;;;;;;5071725;28;20671;-50
2022/03/15 09:57:04;;;;;;;21.03;15.63;;;;;;;;;;5071496;28;20223;-51
2022/03/15 09:59:30;;;;;;;23.70;16.50;;;;;;;;;;5072081;28;20223;-51
2022/03/15 10:01:59;;;;;;;21.53;16.40;;;;;;;;;;5071716;28;20203;-52
2022/03/15 10:04:27;;;;;;;24.23;17.00;;;;;;;;;;5071666;28;20210;-49
2022/03/15 10:06:54;;;;;;;19.80;15.90;;;;;;;;;;5071764;28;20196;-50
2022/03/15 10:09:21;;;;;;;23.60;16.57;;;;;;;;;;5071788;28;20199;-51
2022/03/15 10:11:48;;;;;;;19.70;15.70;;;;;;;;;;5071567;28;20788;-53
2022/03/15 10:14:15;;;;;;;22.97;16.77;;;;;;;;;;5074093;28;20531;-51
2022/03/15 10:16:42;;;;;;;22.53;15.50;;;;;;;;;;5075252;28;20196;-52
2022/03/15 10:19:09;;;;;;;21.70;17.23;;;;;;;;;;5075533;28;20206;-51
2022/03/15 10:21:45;;;;;;;18.27;15.77;;;;;;;;;;5075276;28;20684;-52
2022/03/15 10:24:14;;;;;;;19.93;15.87;;;;;;;;;;5075147;28;20285;-52
2022/03/15 10:26:40;;;;;;;19.90;16.37;;;;;;;;;;5075107;28;20544;-52
2022/03/15 10:29:07;;;;;;;22.77;16.47;;;;;;;;;;5075105;28;20218;-51
2022/03/15 10:31:33;;;;;;;20.67;15.50;;;;;;;;;;5075213;28;20298;-53
2022/03/15 10:34:00;;;;;;;20.73;16.10;;;;;;;;;;5075155;28;20242;-52
2022/03/15 10:36:27;;;;;;;20.83;16.50;;;;;;;;;;5074871;28;20199;-52
2022/03/15 10:38:54;;;;;;;18.37;15.20;;;;;;;;;;5074880;28;20225;-51
2022/03/15 10:41:21;;;;;;;20.57;15.77;;;;;;;;;;5074046;28;20200;-51
2022/03/15 10:43:50;;;;;;;20.10;15.77;;;;;;;;;;5072364;28;20188;-51
2022/03/15 10:46:21;;;;;;;21.30;16.63;;;;;;;;;;5074587;28;20210;-51
2022/03/15 10:48:47;;;;;;;21.87;16.27;;;;;;;;;;5074351;28;20215;-51
2022/03/15 10:51:14;;;;;;;26.57;17.50;;;;;;;;;;5074550;28;20680;-51
2022/03/15 10:53:41;;;;;;;19.13;15.87;;;;;;;;;;5074370;28;20208;-50
2022/03/15 10:56:14;;;;;;;18.10;15.50;;;;;;;;;;5074156;28;20677;-51
2022/03/15 10:58:46;;;;;;;21.33;16.53;;;;;;;;;;5074229;28;20257;-52
2022/03/15 11:01:13;;;;;;;21.63;16.00;;;;;;;;;;5074542;28;20222;-52
2022/03/15 11:03:39;;;;;;;19.87;16.63;;;;;;;;;;5074220;28;20201;-52
2022/03/15 11:06:08;;;;;;;22.13;17.33;;;;;;;;;;5074178;28;20208;-52
2022/03/15 11:08:34;;;;;;;19.93;16.03;;;;;;;;;;5074361;28;20546;-52
2022/03/15 11:11:03;;;;;;;19.63;16.30;;;;;;;;;;5073998;28;20654;-52
2022/03/15 11:13:31;;;;;;;22.00;16.33;;;;;;;;;;5073996;28;20219;-52
2022/03/15 11:15:57;;;;;;;20.80;17.00;;;;;;;;;;5074429;28;20191;-53
2022/03/15 11:18:25;;;;;;;19.97;16.27;;;;;;;;;;5074226;28;20626;-52
2022/03/15 11:20:52;;;;;;;21.00;16.90;;;;;;;;;;5074220;28;20619;-53
2022/03/15 11:23:19;;;;;;;22.80;16.53;;;;;;;;;;5074111;28;20644;-53
2022/03/15 11:25:47;;;;;;;21.07;16.77;;;;;;;;;;5073700;28;20253;-51
2022/03/15 11:28:14;;;;;;;21.87;16.07;;;;;;;;;;5074323;28;20208;-50
2022/03/15 11:30:42;;;;;;;21.20;15.73;;;;;;;;;;5073779;28;20581;-52
2022/03/15 11:33:09;;;;;;;18.93;14.67;;;;;;;;;;5074001;28;20203;-51
2022/03/15 11:35:35;;;;;;;19.67;15.07;;;;;;;;;;5074075;28;20195;-51
2022/03/15 11:38:02;;;;;;;19.77;15.73;;;;;;;;;;5073840;28;20227;-52
2022/03/15 11:40:29;;;;;;;18.27;14.73;;;;;;;;;;5074009;28;20200;-52
2022/03/15 11:43:11;;;;;;;22.57;16.03;;;;;;;;;;5073612;28;20618;-52
2022/03/15 11:45:40;;;;;;;19.10;15.13;;;;;;;;;;5073761;28;20275;-52
2022/03/15 11:48:10;;;;;;;23.43;16.80;;;;;;;;;;5073740;28;20203;-53
2022/03/15 11:50:38;;;;;;;19.97;15.33;;;;;;;;;;5073571;28;20218;-53
2022/03/15 11:53:07;;;;;;;20.67;16.07;;;;;;;;;;5073605;28;20621;-53
2022/03/15 11:55:37;;;;;;;19.90;15.93;;;;;;;;;;5073658;28;20283;-53
2022/03/15 11:58:04;;;;;;;20.97;16.77;;;;;;;;;;5073309;28;20247;-54
2022/03/15 12:00:31;;;;;;;21.03;15.77;;;;;;;;;;5073632;28;20649;-52
2022/03/15 12:02:59;;;;;;;21.20;17.03;;;;;;;;;;5073566;28;20196;-53
2022/03/15 12:05:27;;;;;;;18.73;16.13;;;;;;;;;;5073191;28;20290;-52
2022/03/15 12:08:11;;;;;;;19.97;15.90;;;;;;;;;;5072828;28;20214;-52
2022/03/15 12:10:38;;;;;;;22.07;15.90;;;;;;;;;;5073255;28;20219;-53
2022/03/15 12:13:05;;;;;;;23.07;16.70;;;;;;;;;;5072947;28;20188;-54
2022/03/15 12:15:35;;;;;;;19.90;15.13;;;;;;;;;;5071331;28;20195;-53
2022/03/15 12:18:09;;;;;;;18.97;13.03;;;;;;;;;;5072870;28;20227;-53
2022/03/15 12:20:47;;;;;;;18.57;14.20;;;;;;;;;;5073050;28;20196;-54
2022/03/15 12:23:18;;;;;;;20.67;15.03;;;;;;;;;;5072840;28;20293;-53
2022/03/15 12:25:52;;;;;;;20.27;14.80;;;;;;;;;;5073016;28;20199;-53
2022/03/15 12:28:24;;;;;;;20.20;14.77;;;;;;;;;;5072850;28;20610;-53
2022/03/15 12:30:52;;;;;;;19.63;15.17;;;;;;;;;;5072729;28;20604;-53
2022/03/15 12:33:25;;;;;;;19.47;14.90;;;;;;;;;;5072833;28;20214;-53
2022/03/15 12:35:57;;;;;;;19.73;15.13;;;;;;;;;;5071622;28;20565;-52
2022/03/15 12:38:32;;;;;;;19.30;15.13;;;;;;;;;;5072499;28;20281;-53
2022/03/15 12:41:00;;;;;;;18.27;15.20;;;;;;;;;;5071866;28;20252;-53
2022/03/15 12:43:26;;;;;;;18.93;14.40;;;;;;;;;;5072021;28;20202;-53
2022/03/15 12:45:52;;;;;;;16.13;12.80;;;;;;;;;;5071959;28;20282;-53
2022/03/15 12:48:28;;;;;;;15.97;12.57;;;;;;;;;;5072184;28;20195;-53
2022/03/15 12:50:59;;;;;;;16.10;12.07;;;;;;;;;;5072077;28;20230;-53
2022/03/15 12:53:33;;;;;;;22.00;12.90;;;;;;;;;;5072071;28;20657;-54
2022/03/15 12:56:00;;;;;;;20.47;13.40;;;;;;;;;;5072069;28;20199;-52
2022/03/15 12:58:29;;;;;;;15.23;12.87;;;;;;;;;;5071892;28;20219;-53
2022/03/15 13:00:55;;;;;;;18.47;13.23;;;;;;;;;;5071854;28;20200;-53
2022/03/15 13:03:22;;;;;;;18.00;13.90;;;;;;;;;;5071959;28;20270;-53
2022/03/15 13:05:52;;;;;;;20.47;13.90;;;;;;;;;;5071960;28;20199;-53
2022/03/15 13:08:20;;;;;;;13.27;10.33;;;;;;;;;;5072052;28;20191;-53
2022/03/15 13:10:47;;;;;;;13.83;9.80;;;;;;;;;;5071863;28;20222;-53
2022/03/15 13:13:13;;;;;;;16.43;9.57;;;;;;;;;;5071951;28;20196;-53
2022/03/15 13:15:40;;;;;;;12.17;9.57;;;;;;;;;;5071943;28;20208;-52
2022/03/15 13:18:06;;;;;;;15.73;9.53;;;;;;;;;;5071614;28;20212;-53
2022/03/15 13:20:38;;;;;;;11.87;9.57;;;;;;;;;;5071785;28;20215;-52
2022/03/15 13:23:05;;;;;;;12.03;9.90;;;;;;;;;;5071448;28;20219;-53
2022/03/15 13:25:36;;;;;;;12.93;9.27;;;;;;;;;;5071818;28;20195;-52
2022/03/15 13:28:08;;;;;;;15.40;9.70;;;;;;;;;;5072045;28;20195;-52
2022/03/15 13:30:40;;;;;;;12.43;9.23;;;;;;;;;;5071897;28;20203;-53
2022/03/15 13:33:06;;;;;;;13.07;8.30;;;;;;;;;;5071529;28;20458;-53
2022/03/15 13:35:32;;;;;;;12.53;8.47;;;;;;;;;;5071808;28;20199;-53
2022/03/15 13:37:58;;;;;;;13.03;8.73;;;;;;;;;;5071416;28;20252;-52
2022/03/15 13:40:28;;;;;;;10.17;7.70;;;;;;;;;;5071502;28;20188;-53
2022/03/15 13:42:55;;;;;;;9.53;8.03;;;;;;;;;;5071409;28;20211;-52
2022/03/15 13:45:23;;;;;;;16.67;10.37;;;;;;;;;;5071376;28;20223;-52
2022/03/15 13:47:51;;;;;;;14.73;9.93;;;;;;;;;;5073265;28;20252;-52
2022/03/15 13:50:17;;;;;;;10.90;9.30;;;;;;;;;;5075733;28;20214;-52
2022/03/15 13:52:43;;;;;;;11.87;9.73;;;;;;;;;;5075468;28;20206;-53
2022/03/15 13:55:11;;;;;;;15.20;9.63;;;;;;;;;;5075460;28;20202;-53
2022/03/15 13:57:40;;;;;;;12.57;9.83;;;;;;;;;;5075304;28;20697;-53
2022/03/15 14:00:17;;;;;;;12.10;9.80;;;;;;;;;;5075311;28;20282;-52
2022/03/15 14:02:44;;;;;;;15.57;10.67;;;;;;;;;;5075462;28;20199;-52
2022/03/15 14:05:13;;;;;;;15.53;10.33;;;;;;;;;;5075357;28;20195;-52
2022/03/15 14:07:39;;;;;;;12.43;9.27;;;;;;;;;;5075278;28;20685;-53
2022/03/15 14:10:08;;;;;;;11.77;9.17;;;;;;;;;;5075034;28;20678;-53
2022/03/15 14:12:35;;;;;;;13.03;9.20;;;;;;;;;;5075153;28;20265;-52
2022/03/15 14:15:05;;;;;;;12.43;9.20;;;;;;;;;;5075107;28;20195;-53
2022/03/15 14:17:42;;;;;;;12.40;9.00;;;;;;;;;;5075143;28;20243;-53
2022/03/15 14:20:12;;;;;;;12.33;8.03;;;;;;;;;;5075169;28;20217;-54